Iacri, Brazil
Current Conditions -  °F | °C
As of 4:00 PM on Tuesday 21 Oct 2014 (Local Time) from SBDN Reporting Station
Few Clouds Few Clouds  
Wind Chill: 86°   Ceiling: Unl
Heat Index: 86°   Visibility: 6mi
Dew Point: 54°   Wind: 8mph
Humidity: 33%   Direction: 120°ESE
Pressure: 29.97"   Gusts: NA
Location:  21.86°S, 50.69°W
Report Text: SBDN 211800Z 12007KT 9999 FEW045 30/12 Q1015
Loading
Personal Weather Stations






























Interactive Weather Map
Tropical Storm Tracking
New forecast layout! Learn more

10-Day Weather Forecast

Advertisements
Track Severe Weather on mobile